createdAt,value
2018-12-02T00:00:23.657Z,6.17
2018-12-02T00:02:51.902Z,6.65
2018-12-02T00:05:20.137Z,6.83
2018-12-02T00:07:48.492Z,6.60
2018-12-02T00:10:17.674Z,7.00
2018-12-02T00:12:45.791Z,6.17
2018-12-02T00:15:17.724Z,5.90
2018-12-02T00:17:47.323Z,6.72
2018-12-02T00:20:15.982Z,7.70
2018-12-02T00:22:44.264Z,7.53
2018-12-02T00:25:13.598Z,8.08
2018-12-02T00:27:44.136Z,6.90
2018-12-02T00:30:22.360Z,7.85
2018-12-02T00:32:50.597Z,8.10
2018-12-02T00:35:19.720Z,8.38
2018-12-02T00:37:49.019Z,8.65
2018-12-02T00:40:18.978Z,10.65
2018-12-02T00:42:49.170Z,10.65
2018-12-02T00:45:19.485Z,9.43
2018-12-02T00:47:47.681Z,9.33
2018-12-02T00:50:16.836Z,8.73
2018-12-02T00:52:46.009Z,9.18
2018-12-02T00:55:19.200Z,8.78
2018-12-02T00:57:47.363Z,9.15
2018-12-02T01:00:15.925Z,9.33
2018-12-02T01:02:44.912Z,8.83
2018-12-02T01:05:14.167Z,8.20
2018-12-02T01:07:42.444Z,8.95
2018-12-02T01:10:21.967Z,8.45
2018-12-02T01:12:52.833Z,7.90
2018-12-02T01:15:22.040Z,7.60
2018-12-02T01:17:50.086Z,8.38
2018-12-02T01:20:19.975Z,7.30
2018-12-02T01:22:48.092Z,7.67
2018-12-02T01:25:16.430Z,7.95
2018-12-02T01:27:45.371Z,8.35
2018-12-02T01:30:19.982Z,8.83
2018-12-02T01:32:48.141Z,8.20
2018-12-02T01:35:17.678Z,8.43
2018-12-02T01:37:45.877Z,7.45
2018-12-02T01:40:15.614Z,8.43
2018-12-02T01:42:43.697Z,8.08
2018-12-02T01:45:14.065Z,9.13
2018-12-02T01:47:42.187Z,8.80
2018-12-02T01:50:13.233Z,7.00
2018-12-02T01:52:41.368Z,8.13
2018-12-02T01:55:09.636Z,7.75
2018-12-02T01:57:37.714Z,7.20
2018-12-02T02:00:13.054Z,8.45
2018-12-02T02:02:41.090Z,9.08
2018-12-02T02:05:09.163Z,7.50
2018-12-02T02:07:37.236Z,9.68
2018-12-02T02:10:10.021Z,7.37
2018-12-02T02:12:37.985Z,7.12
2018-12-02T02:15:07.419Z,7.65
2018-12-02T02:17:35.426Z,6.80
2018-12-02T02:20:03.970Z,7.35
2018-12-02T02:22:31.956Z,7.03
2018-12-02T02:24:59.992Z,6.12
2018-12-02T02:27:28.051Z,6.65
2018-12-02T02:29:56.143Z,7.62
2018-12-02T02:32:24.157Z,6.40
2018-12-02T02:34:52.172Z,6.75
2018-12-02T02:37:20.176Z,7.25
2018-12-02T02:39:48.229Z,7.08
2018-12-02T02:42:16.272Z,5.95
2018-12-02T02:44:44.265Z,6.83
2018-12-02T02:47:12.296Z,6.83
2018-12-02T02:49:40.310Z,6.97
2018-12-02T02:52:08.539Z,6.28
2018-12-02T02:54:36.570Z,6.42
2018-12-02T02:57:05.226Z,6.60
2018-12-02T02:59:33.322Z,6.37
2018-12-02T03:02:07.222Z,5.70
2018-12-02T03:04:35.273Z,5.83
2018-12-02T03:07:03.288Z,6.25
2018-12-02T03:09:31.470Z,6.05
2018-12-02T03:11:59.891Z,5.12
2018-12-02T03:14:27.996Z,5.53
2018-12-02T03:16:56.042Z,5.08
2018-12-02T03:19:24.062Z,5.03
2018-12-02T03:21:52.119Z,5.53
2018-12-02T03:24:20.158Z,5.40
2018-12-02T03:26:48.175Z,5.70
2018-12-02T03:29:16.226Z,5.87
2018-12-02T03:31:44.255Z,6.65
2018-12-02T03:34:12.346Z,5.72
2018-12-02T03:36:40.423Z,5.25
2018-12-02T03:39:08.529Z,6.72
2018-12-02T03:41:36.670Z,5.15
2018-12-02T03:44:04.700Z,5.00
2018-12-02T03:46:32.709Z,5.28
2018-12-02T03:49:00.696Z,5.90
2018-12-02T03:51:28.670Z,5.50
2018-12-02T03:53:56.710Z,5.65
2018-12-02T03:56:24.741Z,5.55
2018-12-02T03:58:54.797Z,5.95
2018-12-02T04:01:22.766Z,5.35
2018-12-02T04:03:50.808Z,5.20
2018-12-02T04:06:18.835Z,5.60
2018-12-02T04:08:46.876Z,5.70
2018-12-02T04:11:14.937Z,5.65
2018-12-02T04:13:43.018Z,5.72
2018-12-02T04:16:11.049Z,6.37
2018-12-02T04:18:39.069Z,6.15
2018-12-02T04:21:07.126Z,5.97
2018-12-02T04:23:35.220Z,6.65
2018-12-02T04:26:03.286Z,6.08
2018-12-02T04:28:31.279Z,5.90
2018-12-02T04:30:59.299Z,6.58
2018-12-02T04:33:27.295Z,5.17
2018-12-02T04:35:55.390Z,5.62
2018-12-02T04:38:23.496Z,6.70
2018-12-02T04:40:51.578Z,6.17
2018-12-02T04:43:19.631Z,5.97
2018-12-02T04:45:47.735Z,6.70
2018-12-02T04:48:15.796Z,4.90
2018-12-02T04:50:44.168Z,5.22
2018-12-02T04:53:12.220Z,5.87
2018-12-02T04:55:40.388Z,5.50
2018-12-02T04:58:08.443Z,5.10
2018-12-02T05:00:36.526Z,6.50
2018-12-02T05:03:04.592Z,4.75
2018-12-02T05:05:32.563Z,4.35
2018-12-02T05:08:00.521Z,5.67
2018-12-02T05:10:28.468Z,5.10
2018-12-02T05:12:56.422Z,4.42
2018-12-02T05:15:24.409Z,5.22
2018-12-02T05:17:52.419Z,5.15
2018-12-02T05:20:21.125Z,4.95
2018-12-02T05:22:49.121Z,5.55
2018-12-02T05:25:18.538Z,5.90
2018-12-02T05:27:45.717Z,5.30
2018-12-02T05:30:15.601Z,4.45
2018-12-02T05:32:44.169Z,5.03
2018-12-02T05:35:13.067Z,5.45
2018-12-02T05:37:41.077Z,5.97
2018-12-02T05:40:12.078Z,5.35
2018-12-02T05:42:40.102Z,5.00
2018-12-02T05:45:10.518Z,6.33
2018-12-02T05:47:38.554Z,5.15
2018-12-02T05:50:20.316Z,4.95
2018-12-02T05:52:49.592Z,5.95
2018-12-02T05:55:19.940Z,5.80
2018-12-02T05:57:47.904Z,4.92
2018-12-02T06:00:18.216Z,4.70
2018-12-02T06:02:46.238Z,5.05
2018-12-02T06:05:14.219Z,5.15
2018-12-02T06:07:42.187Z,5.55
2018-12-02T06:10:18.770Z,6.67
2018-12-02T06:12:46.813Z,4.97
2018-12-02T06:15:16.728Z,5.80
2018-12-02T06:17:44.673Z,5.78
2018-12-02T06:20:16.597Z,6.78
2018-12-02T06:22:44.697Z,6.62
2018-12-02T06:25:12.648Z,5.42
2018-12-02T06:27:40.582Z,5.62
2018-12-02T06:30:16.637Z,6.03
2018-12-02T06:32:45.108Z,5.65
2018-12-02T06:35:13.921Z,6.60
2018-12-02T06:37:41.952Z,6.62
2018-12-02T06:40:12.380Z,7.60
2018-12-02T06:42:40.376Z,6.37
2018-12-02T06:45:09.515Z,6.90
2018-12-02T06:47:37.488Z,6.37
2018-12-02T06:50:08.456Z,6.40
2018-12-02T06:52:36.382Z,5.95
2018-12-02T06:55:09.730Z,6.87
2018-12-02T06:57:42.058Z,5.83
2018-12-02T07:00:24.311Z,6.42
2018-12-02T07:03:09.462Z,6.45
2018-12-02T07:05:41.201Z,6.70
2018-12-02T07:08:09.130Z,6.37
2018-12-02T07:10:37.093Z,6.15
2018-12-02T07:13:05.220Z,6.55
2018-12-02T07:15:33.237Z,6.35
2018-12-02T07:18:05.966Z,6.75
2018-12-02T07:20:37.956Z,6.92
2018-12-02T07:23:11.239Z,7.05
2018-12-02T07:25:41.477Z,6.50
2018-12-02T07:28:09.449Z,5.85
2018-12-02T07:30:37.434Z,6.20
2018-12-02T07:33:05.983Z,6.40
2018-12-02T07:35:33.939Z,7.08
2018-12-02T07:38:06.219Z,6.12
2018-12-02T07:40:35.769Z,6.80
2018-12-02T07:43:05.477Z,7.40
2018-12-02T07:45:34.009Z,6.03
2018-12-02T07:48:01.496Z,7.97
2018-12-02T07:50:29.499Z,6.62
2018-12-02T07:52:57.489Z,5.97
2018-12-02T07:55:25.453Z,6.75
2018-12-02T07:57:53.479Z,6.75
2018-12-02T08:00:21.426Z,6.10
2018-12-02T08:02:49.411Z,6.33
2018-12-02T08:05:17.748Z,6.90
2018-12-02T08:07:47.098Z,6.12
2018-12-02T08:10:16.039Z,5.35
2018-12-02T08:12:44.032Z,6.30
2018-12-02T08:15:13.961Z,5.67
2018-12-02T08:17:42.055Z,5.45
2018-12-02T08:20:11.237Z,4.78
2018-12-02T08:22:39.457Z,6.22
2018-12-02T08:25:10.897Z,5.08
2018-12-02T08:27:39.009Z,6.05
2018-12-02T08:30:24.966Z,5.45
2018-12-02T08:32:53.574Z,4.58
2018-12-02T08:35:23.099Z,4.62
2018-12-02T08:37:53.604Z,4.90
2018-12-02T08:40:21.919Z,4.30
2018-12-02T08:42:50.379Z,5.22
2018-12-02T08:45:18.911Z,5.40
2018-12-02T08:47:47.004Z,4.90
2018-12-02T08:50:19.117Z,4.65
2018-12-02T08:52:48.437Z,4.45
2018-12-02T08:55:17.677Z,4.05
2018-12-02T08:57:46.059Z,4.60
2018-12-02T09:00:16.298Z,4.58
2018-12-02T09:02:47.575Z,4.37
2018-12-02T09:05:15.914Z,4.40
2018-12-02T09:07:44.240Z,4.12
2018-12-02T09:10:16.654Z,4.45
2018-12-02T09:12:44.911Z,5.03
2018-12-02T09:15:13.104Z,4.35
2018-12-02T09:17:41.213Z,4.70
2018-12-02T09:20:17.623Z,4.42
2018-12-02T09:22:45.688Z,4.72
2018-12-02T09:25:14.320Z,5.67
2018-12-02T09:27:45.807Z,3.80
2018-12-02T09:30:16.549Z,4.85
2018-12-02T09:32:45.104Z,4.53
2018-12-02T09:35:13.402Z,6.92
2018-12-02T09:37:42.890Z,6.20
2018-12-02T09:40:13.857Z,5.95
2018-12-02T09:42:47.025Z,4.80
2018-12-02T09:45:19.258Z,3.62
2018-12-02T09:47:47.309Z,4.55
2018-12-02T09:50:15.977Z,4.78
2018-12-02T09:52:43.990Z,4.03
2018-12-02T09:55:18.825Z,4.85
2018-12-02T09:57:46.860Z,4.62
2018-12-02T10:00:17.969Z,6.12
2018-12-02T10:02:45.983Z,6.05
2018-12-02T10:05:14.024Z,4.30
2018-12-02T10:07:42.163Z,4.80
2018-12-02T10:10:12.603Z,4.70
2018-12-02T10:12:41.044Z,4.37
2018-12-02T10:15:13.012Z,4.12
2018-12-02T10:17:41.505Z,4.75
2018-12-02T10:20:11.209Z,3.80
2018-12-02T10:22:39.288Z,4.97
2018-12-02T10:25:09.796Z,3.83
2018-12-02T10:27:37.852Z,3.47
2018-12-02T10:30:10.856Z,4.30
2018-12-02T10:32:38.881Z,3.85
2018-12-02T10:35:06.937Z,3.17
2018-12-02T10:37:34.926Z,2.50
2018-12-02T10:40:03.119Z,3.00
2018-12-02T10:42:31.038Z,3.58
2018-12-02T10:44:59.073Z,3.10
2018-12-02T10:47:27.677Z,3.65
2018-12-02T10:49:55.647Z,4.72
2018-12-02T10:52:23.631Z,4.00
2018-12-02T10:54:51.668Z,3.25
2018-12-02T10:57:19.695Z,3.65
2018-12-02T10:59:47.662Z,3.83
2018-12-02T11:02:16.113Z,3.60
2018-12-02T11:04:44.210Z,2.70
2018-12-02T11:07:12.184Z,2.67
2018-12-02T11:09:40.216Z,2.87
2018-12-02T11:12:08.309Z,2.85
2018-12-02T11:14:36.283Z,2.70
2018-12-02T11:17:04.329Z,2.62
2018-12-02T11:19:32.320Z,2.42
2018-12-02T11:22:00.342Z,2.35
2018-12-02T11:24:28.368Z,2.00
2018-12-02T11:26:56.335Z,2.15
2018-12-02T11:29:24.322Z,2.30
2018-12-02T11:31:52.324Z,2.55
2018-12-02T11:34:20.276Z,1.90
2018-12-02T11:36:48.351Z,2.15
2018-12-02T11:39:16.326Z,2.52
2018-12-02T11:41:44.329Z,2.15
2018-12-02T11:44:12.253Z,2.25
2018-12-02T11:46:40.216Z,1.92
2018-12-02T11:49:08.201Z,2.70
2018-12-02T11:51:36.175Z,2.22
2018-12-02T11:54:04.345Z,2.02
2018-12-02T11:56:32.309Z,2.60
2018-12-02T11:59:00.320Z,2.20
2018-12-02T12:01:28.321Z,3.00
2018-12-02T12:03:56.333Z,2.85
2018-12-02T12:06:24.321Z,3.33
2018-12-02T12:08:52.282Z,2.98
2018-12-02T12:11:20.246Z,2.80
2018-12-02T12:13:48.222Z,2.33
2018-12-02T12:16:16.189Z,2.20
2018-12-02T12:18:44.141Z,2.47
2018-12-02T12:21:12.152Z,3.22
2018-12-02T12:23:42.595Z,2.20
2018-12-02T12:26:10.750Z,15.13
2018-12-02T12:28:38.992Z,11.20
2018-12-02T12:31:07.055Z,10.80
2018-12-02T12:33:35.030Z,17.12
2018-12-02T12:36:03.030Z,7.78
2018-12-02T12:38:31.021Z,6.85
2018-12-02T12:40:59.113Z,7.70
2018-12-02T12:43:29.656Z,13.50
2018-12-02T12:45:58.445Z,6.03
2018-12-02T12:48:26.427Z,8.28
2018-12-02T12:50:55.367Z,11.80
2018-12-02T12:53:23.360Z,3.58
2018-12-02T12:55:51.368Z,11.28
2018-12-02T12:58:19.636Z,2.95
2018-12-02T13:00:47.690Z,2.40
2018-12-02T13:03:15.648Z,1.70
2018-12-02T13:05:44.002Z,2.22
2018-12-02T13:08:13.487Z,2.05
2018-12-02T13:10:41.494Z,1.90
2018-12-02T13:13:10.411Z,2.42
2018-12-02T13:15:38.403Z,1.70
2018-12-02T13:18:07.711Z,1.85
2018-12-02T13:20:53.788Z,2.10
2018-12-02T13:23:22.100Z,2.22
2018-12-02T13:25:50.097Z,2.20
2018-12-02T13:28:18.114Z,1.22
2018-12-02T13:30:46.163Z,1.85
2018-12-02T13:33:14.145Z,2.22
2018-12-02T13:35:42.195Z,2.42
2018-12-02T13:38:10.158Z,2.37
2018-12-02T13:40:39.301Z,12.82
2018-12-02T13:43:12.017Z,8.30
2018-12-02T13:45:39.995Z,1.75
2018-12-02T13:48:07.970Z,2.00
2018-12-02T13:50:36.037Z,1.60
2018-12-02T13:53:04.504Z,1.60
2018-12-02T13:55:32.544Z,1.90
2018-12-02T13:58:01.076Z,2.35
2018-12-02T14:00:30.511Z,2.05
2018-12-02T14:03:01.535Z,2.12
2018-12-02T14:05:29.667Z,2.90
2018-12-02T14:07:57.754Z,2.60
2018-12-02T14:10:25.772Z,3.20
2018-12-02T14:12:57.917Z,1.90
2018-12-02T14:15:42.270Z,1.72
2018-12-02T14:18:23.158Z,1.75
2018-12-02T14:20:51.166Z,8.15
2018-12-02T14:23:19.179Z,1.87
2018-12-02T14:25:47.375Z,1.80
2018-12-02T14:28:18.255Z,2.30
2018-12-02T14:30:46.293Z,2.98
2018-12-02T14:33:14.252Z,2.45
2018-12-02T14:35:42.374Z,1.52
2018-12-02T14:38:10.403Z,1.50
2018-12-02T14:40:38.394Z,2.30
2018-12-02T14:43:06.714Z,2.90
2018-12-02T14:45:34.859Z,1.90
2018-12-02T14:48:02.912Z,3.30
2018-12-02T14:50:31.047Z,4.47
2018-12-02T14:52:59.296Z,5.25
2018-12-02T14:55:27.296Z,3.95
2018-12-02T14:57:55.299Z,3.83
2018-12-02T15:00:23.286Z,3.25
2018-12-02T15:02:51.304Z,2.60
2018-12-02T15:05:20.389Z,3.12
2018-12-02T15:07:47.345Z,2.27
2018-12-02T15:10:17.660Z,4.22
2018-12-02T15:12:46.981Z,3.92
2018-12-02T15:15:16.072Z,3.45
2018-12-02T15:17:44.937Z,3.75
2018-12-02T15:20:14.378Z,3.25
2018-12-02T15:22:42.387Z,2.60
2018-12-02T15:25:11.660Z,2.20
2018-12-02T15:27:39.711Z,4.15
2018-12-02T15:30:11.498Z,4.12
2018-12-02T15:32:39.832Z,3.00
2018-12-02T15:35:09.035Z,2.33
2018-12-02T15:37:37.039Z,3.17
2018-12-02T15:40:08.068Z,4.62
2018-12-02T15:42:36.281Z,1.85
2018-12-02T15:45:05.255Z,1.80
2018-12-02T15:47:33.255Z,3.45
2018-12-02T15:50:01.193Z,4.50
2018-12-02T15:52:29.158Z,3.87
2018-12-02T15:54:57.119Z,2.35
2018-12-02T15:57:25.119Z,5.42
2018-12-02T15:59:53.195Z,5.05
2018-12-02T16:02:21.165Z,4.53
2018-12-02T16:04:49.189Z,2.27
2018-12-02T16:07:17.459Z,3.10
2018-12-02T16:09:45.749Z,2.60
2018-12-02T16:12:14.372Z,3.50
2018-12-02T16:14:42.686Z,2.80
2018-12-02T16:17:10.788Z,2.70
2018-12-02T16:19:38.765Z,2.42
2018-12-02T16:22:07.374Z,2.40
2018-12-02T16:24:35.396Z,3.05
2018-12-02T16:27:03.466Z,2.10
2018-12-02T16:29:32.056Z,2.47
2018-12-02T16:32:00.076Z,2.30
2018-12-02T16:34:28.253Z,3.47
2018-12-02T16:36:56.226Z,2.12
2018-12-02T16:39:24.199Z,3.20
2018-12-02T16:41:52.271Z,2.25
2018-12-02T16:44:20.265Z,2.42
2018-12-02T16:46:48.552Z,9.50
2018-12-02T16:49:16.860Z,3.83
2018-12-02T16:51:44.917Z,2.95
2018-12-02T16:54:13.101Z,2.45
2018-12-02T16:56:41.467Z,2.52
2018-12-02T16:59:18.640Z,2.50
2018-12-02T17:01:50.879Z,2.58
2018-12-02T17:04:19.591Z,4.15
2018-12-02T17:06:47.730Z,1.50
2018-12-02T17:09:15.971Z,2.15
2018-12-02T17:11:44.161Z,2.60
2018-12-02T17:14:12.222Z,2.22
2018-12-02T17:16:40.245Z,2.95
2018-12-02T17:19:08.354Z,2.10
2018-12-02T17:21:36.482Z,2.35
2018-12-02T17:24:05.935Z,2.58
2018-12-02T17:26:34.085Z,2.30
2018-12-02T17:29:02.422Z,6.97
2018-12-02T17:31:34.441Z,1.42
2018-12-02T17:34:02.535Z,1.90
2018-12-02T17:36:31.822Z,2.30
2018-12-02T17:39:02.058Z,3.72
2018-12-02T17:41:30.146Z,1.92
2018-12-02T17:43:58.283Z,1.40
2018-12-02T17:46:26.352Z,1.12
2018-12-02T17:48:54.409Z,1.12
2018-12-02T17:51:22.525Z,0.60
2018-12-02T17:53:50.544Z,1.35
2018-12-02T17:56:18.705Z,1.50
2018-12-02T17:58:46.733Z,1.20
2018-12-02T18:01:14.761Z,0.70
2018-12-02T18:03:44.833Z,1.10
2018-12-02T18:06:14.226Z,0.75
2018-12-02T18:08:42.247Z,1.40
2018-12-02T18:11:10.891Z,3.72
2018-12-02T18:13:38.927Z,1.02
2018-12-02T18:16:07.089Z,1.05
2018-12-02T18:18:35.337Z,0.95
2018-12-02T18:21:03.836Z,1.60
2018-12-02T18:23:32.348Z,1.40
2018-12-02T18:26:00.871Z,0.40
2018-12-02T18:28:28.860Z,0.80
2018-12-02T18:30:57.607Z,0.62
2018-12-02T18:33:26.551Z,0.68
2018-12-02T18:35:57.180Z,0.60
2018-12-02T18:38:26.155Z,0.70
2018-12-02T18:41:32.160Z,0.90
2018-12-02T18:44:00.151Z,0.50
2018-12-02T18:46:28.125Z,0.60
2018-12-02T18:48:56.161Z,0.60
2018-12-02T18:51:24.184Z,0.72
2018-12-02T18:53:52.242Z,0.82
2018-12-02T18:56:20.293Z,0.70
2018-12-02T18:58:48.401Z,0.85
2018-12-02T19:01:16.481Z,0.70
2018-12-02T19:03:44.526Z,0.70
2018-12-02T19:06:12.619Z,1.65
2018-12-02T19:08:40.708Z,1.30
2018-12-02T19:11:09.148Z,1.22
2018-12-02T19:13:37.203Z,1.40
2018-12-02T19:16:05.336Z,1.65
2018-12-02T19:18:33.449Z,2.00
2018-12-02T19:21:06.365Z,1.50
2018-12-02T19:23:38.038Z,2.60
2018-12-02T19:26:06.115Z,0.90
2018-12-02T19:28:34.208Z,0.68
2018-12-02T19:31:02.204Z,1.90
2018-12-02T19:33:30.419Z,2.10
2018-12-02T19:36:00.822Z,1.25
2018-12-02T19:38:28.909Z,1.60
2018-12-02T19:40:57.009Z,0.90
2018-12-02T19:43:24.993Z,1.15
2018-12-02T19:45:53.164Z,1.02
2018-12-02T19:48:21.266Z,0.80
2018-12-02T19:50:49.443Z,1.07
2018-12-02T19:53:17.545Z,1.50
2018-12-02T19:55:46.034Z,1.52
2018-12-02T19:58:14.566Z,2.17
2018-12-02T20:00:44.512Z,1.15
2018-12-02T20:03:13.695Z,1.10
2018-12-02T20:05:42.961Z,1.20
2018-12-02T20:08:12.037Z,1.00
2018-12-02T20:10:41.466Z,1.10
2018-12-02T20:13:12.710Z,1.30
2018-12-02T20:15:46.474Z,1.32
2018-12-02T20:18:14.605Z,1.45
2018-12-02T20:20:48.854Z,1.62
2018-12-02T20:23:23.518Z,1.60
2018-12-02T20:25:52.841Z,1.50
2018-12-02T20:28:22.496Z,1.47
2018-12-02T20:30:50.615Z,1.50
2018-12-02T20:33:18.682Z,1.82
2018-12-02T20:35:46.679Z,1.55
2018-12-02T20:38:15.313Z,1.35
2018-12-02T20:40:43.658Z,1.30
2018-12-02T20:43:12.596Z,1.32
2018-12-02T20:45:40.729Z,1.50
2018-12-02T20:48:08.825Z,1.55
2018-12-02T20:50:36.832Z,1.50
2018-12-02T20:53:05.377Z,1.90
2018-12-02T20:55:33.566Z,1.35
2018-12-02T20:58:02.784Z,2.08
2018-12-02T21:00:31.015Z,1.25
2018-12-02T21:03:09.455Z,1.30
2018-12-02T21:05:40.395Z,1.30
2018-12-02T21:08:08.668Z,1.00
2018-12-02T21:10:36.721Z,1.30
2018-12-02T21:13:04.758Z,1.40
2018-12-02T21:15:32.851Z,1.30
2018-12-02T21:18:03.420Z,1.40
2018-12-02T21:20:31.458Z,1.40
2018-12-02T21:23:00.375Z,1.60
2018-12-02T21:25:28.461Z,1.70
2018-12-02T21:27:56.518Z,1.47
2018-12-02T21:30:26.053Z,1.10
2018-12-02T21:32:54.156Z,1.35
2018-12-02T21:35:22.343Z,1.22
2018-12-02T21:37:52.089Z,1.20
2018-12-02T21:40:20.199Z,1.27
2018-12-02T21:42:48.310Z,1.30
2018-12-02T21:45:17.263Z,1.50
2018-12-02T21:47:47.584Z,1.35
2018-12-02T21:50:18.370Z,1.10
2018-12-02T21:52:47.218Z,1.35
2018-12-02T21:55:15.299Z,1.27
2018-12-02T21:57:43.350Z,1.30
2018-12-02T22:00:20.657Z,1.12
2018-12-02T22:02:49.471Z,1.85
2018-12-02T22:05:17.509Z,1.70
2018-12-02T22:07:45.519Z,1.15
2018-12-02T22:10:21.938Z,1.40
2018-12-02T22:12:50.141Z,1.65
2018-12-02T22:15:18.145Z,1.50
2018-12-02T22:17:46.145Z,1.27
2018-12-02T22:20:15.075Z,1.00
2018-12-02T22:22:43.149Z,1.37
2018-12-02T22:25:14.128Z,1.12
2018-12-02T22:27:43.177Z,0.90
2018-12-02T22:30:15.106Z,1.25
2018-12-02T22:32:43.110Z,1.30
2018-12-02T22:35:12.984Z,1.67
2018-12-02T22:37:41.420Z,1.75
2018-12-02T22:40:26.797Z,1.20
2018-12-02T22:42:55.345Z,0.90
2018-12-02T22:45:27.249Z,0.95
2018-12-02T22:47:55.259Z,0.90
2018-12-02T22:50:24.545Z,0.95
2018-12-02T22:52:53.479Z,0.80
2018-12-02T22:55:21.556Z,1.35
2018-12-02T22:57:49.753Z,1.05
2018-12-02T23:00:21.461Z,1.50
2018-12-02T23:02:57.573Z,1.02
2018-12-02T23:05:25.679Z,1.50
2018-12-02T23:07:53.757Z,1.60
2018-12-02T23:10:21.885Z,1.30
2018-12-02T23:12:49.967Z,1.40
2018-12-02T23:15:18.091Z,1.10
2018-12-02T23:17:46.612Z,0.90
2018-12-02T23:20:14.734Z,1.00
2018-12-02T23:22:42.797Z,1.15
2018-12-02T23:25:12.004Z,1.00
2018-12-02T23:27:40.076Z,1.37
2018-12-02T23:30:17.531Z,1.10
2018-12-02T23:32:45.645Z,1.30
2018-12-02T23:35:13.764Z,1.60
2018-12-02T23:37:41.826Z,1.40
2018-12-02T23:40:25.679Z,1.20
2018-12-02T23:42:53.849Z,1.27
2018-12-02T23:45:21.923Z,1.10
2018-12-02T23:47:49.977Z,1.20
2018-12-02T23:50:19.409Z,1.30
2018-12-02T23:52:47.493Z,1.15
2018-12-02T23:55:16.574Z,1.02
2018-12-02T23:57:44.809Z,0.80
